createdAt,value
2019-05-13T00:01:54.007Z,56.60
2019-05-13T00:04:24.167Z,56.60
2019-05-13T00:06:57.475Z,56.50
2019-05-13T00:09:24.641Z,56.50
2019-05-13T00:11:54.243Z,56.50
2019-05-13T00:14:23.985Z,56.30
2019-05-13T00:16:53.722Z,56.60
2019-05-13T00:19:23.409Z,56.60
2019-05-13T00:21:54.641Z,56.50
2019-05-13T00:24:24.320Z,56.40
2019-05-13T00:26:53.641Z,56.60
2019-05-13T00:29:23.454Z,56.50
2019-05-13T00:31:54.033Z,56.60
2019-05-13T00:34:24.380Z,56.40
2019-05-13T00:37:07.283Z,56.40
2019-05-13T00:39:24.649Z,56.50
2019-05-13T00:41:53.723Z,56.70
2019-05-13T00:44:24.445Z,56.40
2019-05-13T00:46:53.930Z,56.50
2019-05-13T00:49:23.916Z,56.40
2019-05-13T00:51:53.386Z,56.40
2019-05-13T00:54:23.721Z,56.40
2019-05-13T00:56:54.780Z,56.50
2019-05-13T00:59:24.267Z,56.20
2019-05-13T01:01:53.807Z,56.30
2019-05-13T01:04:23.232Z,56.40
2019-05-13T01:06:53.734Z,56.50
2019-05-13T01:09:23.742Z,56.50
2019-05-13T01:11:53.720Z,56.40
2019-05-13T01:14:23.572Z,56.40
2019-05-13T01:16:54.387Z,56.50
2019-05-13T01:19:23.773Z,56.30
2019-05-13T01:21:54.012Z,56.40
2019-05-13T01:24:24.329Z,56.40
2019-05-13T01:26:54.234Z,56.50
2019-05-13T01:29:23.913Z,56.40
2019-05-13T01:31:53.871Z,56.60
2019-05-13T01:34:23.685Z,56.40
2019-05-13T01:36:55.510Z,56.50
2019-05-13T01:39:24.519Z,56.40
2019-05-13T01:41:54.053Z,56.60
2019-05-13T01:44:24.363Z,56.50
2019-05-13T01:46:53.911Z,56.40
2019-05-13T01:49:24.102Z,56.60
2019-05-13T01:51:54.158Z,56.40
2019-05-13T01:54:24.627Z,56.50
2019-05-13T01:56:54.180Z,56.50
2019-05-13T01:59:23.954Z,56.50
2019-05-13T02:01:54.102Z,56.50
2019-05-13T02:04:24.467Z,56.30
2019-05-13T02:06:54.428Z,56.30
2019-05-13T02:09:24.421Z,56.40
2019-05-13T02:11:53.993Z,56.40
2019-05-13T02:14:23.714Z,56.30
2019-05-13T02:16:53.535Z,56.50
2019-05-13T02:19:24.450Z,56.40
2019-05-13T02:22:14.609Z,56.20
2019-05-13T02:24:44.715Z,56.30
2019-05-13T02:27:14.711Z,56.30
2019-05-13T02:29:43.779Z,56.40
2019-05-13T02:32:13.617Z,56.50
2019-05-13T02:34:43.994Z,56.50
2019-05-13T02:37:13.461Z,56.50
2019-05-13T02:39:45.666Z,56.20
2019-05-13T02:42:14.928Z,56.20
2019-05-13T02:44:44.230Z,56.30
2019-05-13T02:47:13.479Z,56.40
2019-05-13T02:49:43.134Z,56.40
2019-05-13T02:52:13.329Z,56.20
2019-05-13T02:54:42.933Z,56.40
2019-05-13T02:57:12.510Z,56.40
2019-05-13T02:59:42.453Z,56.50
2019-05-13T03:02:12.518Z,56.20
2019-05-13T03:04:43.414Z,56.20
2019-05-13T03:07:12.843Z,56.20
2019-05-13T03:09:42.298Z,56.40
2019-05-13T03:12:12.937Z,56.30
2019-05-13T03:14:48.190Z,56.30
2019-05-13T03:17:22.287Z,56.30
2019-05-13T03:19:52.959Z,56.40
2019-05-13T03:22:22.452Z,56.30
2019-05-13T03:24:52.463Z,56.30
2019-05-13T03:27:24.997Z,56.30
2019-05-13T03:29:53.449Z,56.20
2019-05-13T03:32:26.785Z,56.30
2019-05-13T03:34:55.837Z,56.30
2019-05-13T03:37:26.801Z,56.30
2019-05-13T03:39:55.168Z,56.20
2019-05-13T03:42:26.396Z,56.30
2019-05-13T03:44:56.151Z,56.40
2019-05-13T03:47:25.872Z,56.30
2019-05-13T03:49:58.761Z,56.20
2019-05-13T03:52:27.686Z,56.30
2019-05-13T03:54:56.725Z,56.20
2019-05-13T03:57:25.889Z,56.00
2019-05-13T03:59:54.763Z,56.10
2019-05-13T04:02:23.994Z,56.30
2019-05-13T04:04:53.362Z,56.20
2019-05-13T04:07:23.811Z,56.20
2019-05-13T04:09:53.245Z,56.30
2019-05-13T04:12:22.887Z,56.10
2019-05-13T04:14:53.071Z,56.00
2019-05-13T04:17:24.267Z,56.20
2019-05-13T04:19:53.121Z,56.10
2019-05-13T04:22:23.088Z,56.10
2019-05-13T04:24:53.163Z,56.10
2019-05-13T04:27:23.312Z,56.20
2019-05-13T04:29:53.045Z,56.10
2019-05-13T04:32:23.064Z,56.10
2019-05-13T04:35:12.430Z,56.20
2019-05-13T04:37:43.142Z,56.10
2019-05-13T04:40:12.858Z,56.20
2019-05-13T04:42:42.752Z,56.00
2019-05-13T04:45:13.325Z,56.10
2019-05-13T04:47:43.359Z,56.10
2019-05-13T04:50:12.975Z,56.10
2019-05-13T04:52:42.441Z,56.30
2019-05-13T04:55:13.071Z,56.30
2019-05-13T04:57:43.443Z,56.20
2019-05-13T05:00:13.036Z,56.20
2019-05-13T05:03:03.092Z,56.30
2019-05-13T05:06:16.718Z,56.30
2019-05-13T05:09:07.563Z,56.20
2019-05-13T05:12:32.337Z,56.20
2019-05-13T05:15:45.571Z,56.20
2019-05-13T05:18:52.469Z,56.30
2019-05-13T05:21:25.395Z,56.30
2019-05-13T05:24:37.760Z,56.30
2019-05-13T05:27:43.158Z,56.00
2019-05-13T05:30:35.839Z,56.20
2019-05-13T05:33:41.172Z,56.00
2019-05-13T05:36:46.870Z,56.10
2019-05-13T05:39:23.603Z,56.20
2019-05-13T05:41:54.939Z,56.10
2019-05-13T05:44:25.393Z,56.20
2019-05-13T05:46:56.708Z,56.20
2019-05-13T05:49:25.910Z,56.30
2019-05-13T05:52:01.734Z,56.20
2019-05-13T05:54:42.279Z,56.20
2019-05-13T05:57:12.125Z,56.30
2019-05-13T05:59:42.627Z,56.30
2019-05-13T06:02:12.310Z,56.10
2019-05-13T06:04:43.323Z,56.30
2019-05-13T06:07:12.290Z,56.30
2019-05-13T06:09:42.391Z,56.30
2019-05-13T06:12:12.136Z,56.30
2019-05-13T06:14:42.294Z,56.40
2019-05-13T06:17:11.701Z,56.40
2019-05-13T06:19:41.844Z,56.30
2019-05-13T06:22:12.318Z,56.30
2019-05-13T06:24:42.283Z,56.30
2019-05-13T06:27:11.908Z,56.40
2019-05-13T06:29:42.251Z,56.50
2019-05-13T06:32:18.998Z,56.50
2019-05-13T06:34:42.617Z,56.40
2019-05-13T06:37:11.610Z,56.50
2019-05-13T06:39:41.964Z,56.50
2019-05-13T06:42:11.644Z,56.60
2019-05-13T06:44:42.162Z,56.60
2019-05-13T06:47:11.531Z,56.60
2019-05-13T06:49:42.842Z,56.70
2019-05-13T06:52:12.107Z,56.60
2019-05-13T06:54:41.966Z,56.70
2019-05-13T06:57:13.476Z,56.70
2019-05-13T06:59:42.333Z,56.60
2019-05-13T07:02:12.408Z,56.70
2019-05-13T07:04:42.021Z,56.80
2019-05-13T07:07:16.623Z,56.70
2019-05-13T07:09:42.634Z,56.80
2019-05-13T07:12:12.157Z,56.80
2019-05-13T07:14:41.500Z,56.80
2019-05-13T07:17:12.286Z,56.80
2019-05-13T07:19:41.862Z,56.90
2019-05-13T07:22:11.702Z,56.80
2019-05-13T07:24:41.396Z,56.90
2019-05-13T07:27:12.293Z,56.90
2019-05-13T07:29:42.365Z,56.90
2019-05-13T07:32:12.151Z,56.90
2019-05-13T07:34:43.836Z,57.00
2019-05-13T07:37:11.751Z,57.00
2019-05-13T07:39:41.852Z,57.00
2019-05-13T07:42:12.355Z,57.00
2019-05-13T07:44:41.868Z,57.00
2019-05-13T07:47:11.711Z,57.10
2019-05-13T07:49:42.049Z,57.00
2019-05-13T07:52:12.042Z,57.10
2019-05-13T07:54:42.020Z,57.00
2019-05-13T07:57:12.278Z,57.10
2019-05-13T07:59:42.095Z,57.10
2019-05-13T08:02:12.410Z,57.10
2019-05-13T08:04:42.267Z,57.20
2019-05-13T08:07:12.207Z,57.10
2019-05-13T08:09:41.953Z,57.20
2019-05-13T08:12:14.401Z,57.40
2019-05-13T08:14:43.647Z,57.40
2019-05-13T08:17:12.844Z,57.20
2019-05-13T08:19:42.080Z,57.20
2019-05-13T08:22:12.088Z,57.10
2019-05-13T08:24:42.478Z,57.20
2019-05-13T08:27:12.133Z,57.40
2019-05-13T08:29:42.121Z,57.20
2019-05-13T08:32:11.564Z,57.20
2019-05-13T08:34:41.761Z,57.20
2019-05-13T08:37:11.529Z,57.40
2019-05-13T08:39:41.531Z,57.40
2019-05-13T08:42:16.048Z,57.40
2019-05-13T08:44:41.880Z,57.40
2019-05-13T08:47:12.074Z,57.60
2019-05-13T08:49:41.760Z,57.40
2019-05-13T08:52:12.087Z,57.40
2019-05-13T08:54:41.992Z,57.40
2019-05-13T08:57:11.937Z,57.40
2019-05-13T08:59:42.191Z,57.40
2019-05-13T09:02:11.761Z,57.40
2019-05-13T09:04:42.203Z,57.60
2019-05-13T09:07:12.456Z,57.40
2019-05-13T09:09:44.466Z,57.60
2019-05-13T09:12:28.416Z,57.40
2019-05-13T09:14:44.127Z,57.60
2019-05-13T09:17:12.987Z,57.60
2019-05-13T09:19:41.998Z,57.60
2019-05-13T09:22:12.360Z,57.70
2019-05-13T09:24:42.537Z,57.60
2019-05-13T09:27:12.233Z,57.70
2019-05-13T09:29:42.726Z,57.60
2019-05-13T09:32:12.463Z,57.60
2019-05-13T09:34:42.351Z,57.60
2019-05-13T09:37:12.158Z,57.60
2019-05-13T09:39:41.661Z,57.60
2019-05-13T09:42:12.634Z,57.70
2019-05-13T09:44:42.079Z,57.70
2019-05-13T09:47:12.438Z,57.80
2019-05-13T09:49:42.245Z,57.70
2019-05-13T09:52:12.245Z,57.70
2019-05-13T09:54:42.513Z,57.70
2019-05-13T09:57:12.550Z,57.80
2019-05-13T09:59:42.287Z,57.80
2019-05-13T10:02:12.465Z,57.80
2019-05-13T10:04:43.661Z,57.70
2019-05-13T10:07:13.260Z,57.70
2019-05-13T10:09:43.094Z,57.70
2019-05-13T10:12:18.795Z,57.80
2019-05-13T10:14:47.674Z,57.80
2019-05-13T10:17:16.474Z,57.80
2019-05-13T10:19:45.542Z,57.70
2019-05-13T10:22:14.452Z,57.70
2019-05-13T10:24:44.032Z,57.70
2019-05-13T10:27:13.484Z,57.60
2019-05-13T10:29:42.969Z,57.60
2019-05-13T10:32:11.852Z,57.60
2019-05-13T10:34:42.563Z,57.60
2019-05-13T10:37:12.133Z,57.40
2019-05-13T10:39:41.161Z,57.60
2019-05-13T10:42:12.022Z,57.70
2019-05-13T10:44:42.271Z,57.20
2019-05-13T10:47:12.180Z,57.40
2019-05-13T10:49:42.451Z,57.20
2019-05-13T10:52:12.439Z,57.40
2019-05-13T10:54:41.674Z,57.40
2019-05-13T10:57:13.680Z,57.40
2019-05-13T11:00:03.319Z,57.40
2019-05-13T11:02:32.745Z,57.40
2019-05-13T11:05:03.146Z,57.40
2019-05-13T11:07:51.887Z,57.20
2019-05-13T11:10:32.553Z,57.40
2019-05-13T11:13:01.757Z,57.40
2019-05-13T11:15:32.823Z,57.40
2019-05-13T11:18:03.029Z,57.60
2019-05-13T11:20:32.511Z,57.40
2019-05-13T11:23:02.361Z,57.40
2019-05-13T11:25:32.459Z,57.40
2019-05-13T11:28:01.965Z,57.40
2019-05-13T11:30:31.969Z,57.40
2019-05-13T11:33:02.269Z,57.60
2019-05-13T11:35:32.164Z,57.40
2019-05-13T11:38:01.708Z,57.40
2019-05-13T11:40:31.825Z,57.40
2019-05-13T11:43:01.828Z,57.40
2019-05-13T11:45:31.646Z,57.60
2019-05-13T11:48:02.234Z,57.40
2019-05-13T11:50:31.578Z,57.40
2019-05-13T11:53:05.999Z,57.40
2019-05-13T11:55:31.515Z,57.60
2019-05-13T11:58:02.928Z,57.40
2019-05-13T12:00:55.302Z,57.60
2019-05-13T12:03:24.191Z,57.60
2019-05-13T12:05:54.050Z,57.60
2019-05-13T12:08:23.495Z,57.40
2019-05-13T12:10:52.765Z,57.40
2019-05-13T12:13:23.470Z,57.40
2019-05-13T12:15:54.338Z,57.40
2019-05-13T12:18:23.946Z,57.40
2019-05-13T12:20:54.258Z,57.40
2019-05-13T12:23:23.820Z,57.60
2019-05-13T12:25:53.208Z,57.40
2019-05-13T12:28:23.006Z,57.40
2019-05-13T12:30:53.211Z,57.40
2019-05-13T12:33:22.912Z,57.40
2019-05-13T12:35:53.360Z,57.40
2019-05-13T12:38:23.096Z,57.30
2019-05-13T12:40:52.755Z,57.30
2019-05-13T12:43:42.581Z,57.20
2019-05-13T12:46:12.655Z,57.30
2019-05-13T12:48:41.857Z,57.30
2019-05-13T12:51:13.326Z,57.30
2019-05-13T12:53:43.544Z,57.30
2019-05-13T12:56:12.745Z,57.20
2019-05-13T12:58:42.191Z,57.20
2019-05-13T13:01:12.818Z,57.30
2019-05-13T13:03:45.353Z,57.20
2019-05-13T13:09:06.898Z,57.10
2019-05-13T13:11:36.051Z,57.10
2019-05-13T13:14:09.621Z,57.10
2019-05-13T13:16:35.922Z,57.10
2019-05-13T13:19:05.722Z,57.10
2019-05-13T13:21:37.704Z,57.10
2019-05-13T13:24:05.628Z,57.10
2019-05-13T13:26:34.695Z,57.10
2019-05-13T13:29:03.743Z,57.10
2019-05-13T13:31:33.776Z,57.10
2019-05-13T13:34:11.852Z,57.00
2019-05-13T13:36:33.971Z,56.90
2019-05-13T13:39:04.506Z,56.80
2019-05-13T13:41:33.738Z,56.90
2019-05-13T13:44:05.524Z,56.80
2019-05-13T13:46:42.432Z,56.80
2019-05-13T13:49:04.351Z,56.80
2019-05-13T13:51:34.357Z,56.90
2019-05-13T13:54:03.878Z,56.80
2019-05-13T13:56:32.896Z,56.80
2019-05-13T13:59:04.487Z,56.80
2019-05-13T14:01:33.598Z,56.80
2019-05-13T14:04:03.989Z,56.60
2019-05-13T14:07:25.379Z,56.60
2019-05-13T14:09:05.484Z,56.50
2019-05-13T14:11:34.869Z,56.60
2019-05-13T14:14:03.906Z,56.50
2019-05-13T14:16:35.308Z,56.60
2019-05-13T14:19:03.773Z,56.50
2019-05-13T14:21:32.751Z,56.60
2019-05-13T14:24:02.638Z,56.50
2019-05-13T14:26:33.016Z,56.50
2019-05-13T14:29:02.893Z,56.30
2019-05-13T14:31:32.481Z,56.40
2019-05-13T14:34:03.718Z,56.30
2019-05-13T14:36:32.610Z,56.30
2019-05-13T14:39:02.815Z,56.30
2019-05-13T14:41:32.106Z,56.20
2019-05-13T14:44:03.756Z,56.20
2019-05-13T14:46:46.712Z,56.30
2019-05-13T14:49:03.801Z,56.30
2019-05-13T14:51:33.205Z,56.30
2019-05-13T14:54:02.697Z,56.10
2019-05-13T14:56:34.937Z,56.40
2019-05-13T14:59:07.610Z,56.20
2019-05-13T15:01:36.501Z,56.10
2019-05-13T15:04:06.116Z,56.20
2019-05-13T15:06:35.283Z,56.10
2019-05-13T15:09:05.839Z,56.20
2019-05-13T15:11:34.726Z,56.20
2019-05-13T15:14:04.298Z,56.20
2019-05-13T15:16:33.313Z,56.20
2019-05-13T15:19:02.384Z,56.40
2019-05-13T15:21:32.207Z,56.20
2019-05-13T15:24:02.234Z,56.20
2019-05-13T15:26:31.818Z,56.10
2019-05-13T15:29:04.381Z,56.30
2019-05-13T15:31:32.116Z,56.20
2019-05-13T15:34:02.608Z,56.30
2019-05-13T15:36:32.665Z,56.30
2019-05-13T15:39:01.657Z,56.40
2019-05-13T15:41:30.822Z,56.40
2019-05-13T15:44:03.212Z,56.40
2019-05-13T15:46:32.282Z,56.30
2019-05-13T15:49:01.765Z,56.40
2019-05-13T15:51:31.570Z,56.40
2019-05-13T15:54:02.282Z,56.40
2019-05-13T15:56:31.768Z,56.50
2019-05-13T15:59:01.895Z,56.40
2019-05-13T16:01:31.507Z,56.40
2019-05-13T16:04:02.382Z,56.40
2019-05-13T16:06:32.187Z,56.40
2019-05-13T16:09:02.826Z,56.40
2019-05-13T16:11:32.581Z,56.40
2019-05-13T16:14:02.327Z,56.40
2019-05-13T16:16:32.398Z,56.40
2019-05-13T16:19:01.686Z,56.40
2019-05-13T16:21:32.012Z,56.40
2019-05-13T16:24:02.594Z,56.40
2019-05-13T16:26:32.147Z,56.40
2019-05-13T16:29:02.258Z,56.30
2019-05-13T16:31:31.978Z,56.30
2019-05-13T16:34:01.829Z,56.40
2019-05-13T16:36:52.826Z,56.30
2019-05-13T16:39:21.390Z,56.40
2019-05-13T16:41:51.670Z,56.30
2019-05-13T16:44:22.481Z,56.20
2019-05-13T16:46:51.914Z,56.20
2019-05-13T16:49:21.326Z,56.20
2019-05-13T16:51:51.825Z,56.10
2019-05-13T16:54:22.055Z,56.10
2019-05-13T16:56:51.892Z,56.00
2019-05-13T16:59:21.195Z,56.10
2019-05-13T17:01:51.211Z,56.00
2019-05-13T17:04:21.470Z,56.00
2019-05-13T17:06:53.001Z,55.80
2019-05-13T17:09:21.690Z,55.90
2019-05-13T17:11:51.947Z,55.80
2019-05-13T17:14:21.654Z,55.80
2019-05-13T17:16:51.847Z,55.70
2019-05-13T17:19:21.182Z,55.80
2019-05-13T17:21:51.961Z,55.80
2019-05-13T17:24:22.599Z,55.80
2019-05-13T17:26:52.234Z,55.60
2019-05-13T17:29:21.721Z,55.50
2019-05-13T17:31:51.519Z,55.50
2019-05-13T17:34:21.249Z,55.40
2019-05-13T17:36:51.956Z,55.50
2019-05-13T17:39:21.402Z,55.50
2019-05-13T17:41:52.235Z,55.40
2019-05-13T17:44:22.006Z,55.50
2019-05-13T17:46:52.164Z,55.50
2019-05-13T17:49:22.127Z,55.60
2019-05-13T17:51:51.778Z,55.50
2019-05-13T17:54:22.182Z,55.60
2019-05-13T17:56:51.352Z,55.50
2019-05-13T17:59:21.819Z,55.50
2019-05-13T18:01:51.749Z,55.50
2019-05-13T18:04:22.601Z,55.50
2019-05-13T18:06:52.382Z,55.30
2019-05-13T18:09:22.300Z,55.30
2019-05-13T18:11:52.815Z,55.30
2019-05-13T18:14:22.269Z,55.60
2019-05-13T18:16:51.320Z,55.50
2019-05-13T18:19:22.138Z,55.30
2019-05-13T18:21:51.653Z,55.60
2019-05-13T18:24:21.356Z,55.60
2019-05-13T18:26:52.043Z,55.40
2019-05-13T18:29:22.673Z,55.70
2019-05-13T18:31:52.543Z,55.80
2019-05-13T18:34:21.964Z,55.80
2019-05-13T18:36:51.547Z,55.50
2019-05-13T18:39:21.585Z,55.60
2019-05-13T18:41:50.602Z,55.80
2019-05-13T18:44:19.874Z,55.70
2019-05-13T18:46:48.992Z,55.70
2019-05-13T18:49:23.591Z,55.70
2019-05-13T18:51:52.565Z,55.60
2019-05-13T18:54:21.716Z,55.80
2019-05-13T18:56:52.158Z,55.70
2019-05-13T18:59:21.499Z,55.60
2019-05-13T19:01:52.893Z,55.80
2019-05-13T19:04:21.826Z,55.60
2019-05-13T19:06:51.745Z,55.70
2019-05-13T19:09:21.727Z,55.60
2019-05-13T19:11:51.598Z,55.70
2019-05-13T19:14:21.323Z,55.70
2019-05-13T19:16:51.037Z,55.80
2019-05-13T19:19:22.831Z,55.80
2019-05-13T19:21:51.169Z,55.60
2019-05-13T19:24:20.435Z,55.70
2019-05-13T19:26:51.978Z,55.40
2019-05-13T19:29:21.890Z,55.90
2019-05-13T19:31:51.067Z,55.60
2019-05-13T19:34:21.530Z,55.70
2019-05-13T19:36:51.594Z,55.70
2019-05-13T19:39:21.679Z,55.70
2019-05-13T19:41:50.544Z,55.80
2019-05-13T19:44:19.352Z,55.90
2019-05-13T19:46:48.655Z,55.70
2019-05-13T19:49:29.671Z,55.90
2019-05-13T19:51:56.552Z,55.60
2019-05-13T19:54:25.495Z,55.90
2019-05-13T19:56:54.325Z,55.90
2019-05-13T19:59:23.280Z,55.90
2019-05-13T20:01:52.533Z,55.90
2019-05-13T20:04:21.910Z,55.90
2019-05-13T20:06:51.880Z,55.90
2019-05-13T20:09:21.675Z,55.80
2019-05-13T20:11:55.367Z,55.80
2019-05-13T20:14:22.414Z,55.80
2019-05-13T20:16:52.494Z,55.80
2019-05-13T20:19:22.429Z,55.80
2019-05-13T20:21:51.888Z,55.80
2019-05-13T20:24:21.950Z,55.80
2019-05-13T20:26:52.221Z,55.70
2019-05-13T20:29:21.616Z,55.80
2019-05-13T20:31:51.868Z,55.70
2019-05-13T20:34:22.161Z,55.70
2019-05-13T20:36:51.695Z,55.60
2019-05-13T20:39:22.413Z,55.70
2019-05-13T20:41:55.572Z,55.70
2019-05-13T20:44:22.288Z,55.70
2019-05-13T20:46:51.858Z,55.70
2019-05-13T20:49:21.862Z,55.60
2019-05-13T20:51:51.636Z,55.50
2019-05-13T20:54:21.967Z,55.60
2019-05-13T20:56:51.824Z,55.60
2019-05-13T20:59:21.729Z,55.50
2019-05-13T21:01:51.185Z,55.50
2019-05-13T21:04:21.560Z,55.60
2019-05-13T21:06:51.703Z,55.40
2019-05-13T21:09:21.070Z,55.40
2019-05-13T21:11:51.539Z,55.40
2019-05-13T21:14:21.585Z,55.50
2019-05-13T21:16:53.528Z,55.40
2019-05-13T21:19:22.095Z,55.40
2019-05-13T21:21:51.435Z,55.20
2019-05-13T21:24:21.390Z,55.40
2019-05-13T21:26:51.317Z,55.40
2019-05-13T21:29:21.652Z,55.30
2019-05-13T21:31:52.954Z,55.20
2019-05-13T21:34:21.911Z,55.10
2019-05-13T21:36:51.727Z,55.20
2019-05-13T21:39:21.492Z,55.30
2019-05-13T21:41:51.943Z,55.30
2019-05-13T21:44:21.227Z,55.00
2019-05-13T21:46:51.550Z,55.10
2019-05-13T21:49:21.402Z,55.00
2019-05-13T21:51:52.130Z,55.10
2019-05-13T21:54:21.557Z,55.20
2019-05-13T21:57:02.057Z,55.00
2019-05-13T21:59:31.866Z,55.10
2019-05-13T22:02:02.222Z,55.00
2019-05-13T22:04:31.482Z,55.00
2019-05-13T22:07:01.493Z,55.00
2019-05-13T22:09:31.840Z,54.70
2019-05-13T22:12:02.062Z,54.90
2019-05-13T22:14:32.039Z,54.90
2019-05-13T22:17:01.805Z,55.00
2019-05-13T22:19:31.688Z,55.00
2019-05-13T22:22:02.207Z,54.90
2019-05-13T22:24:31.999Z,55.00
2019-05-13T22:27:01.945Z,54.80
2019-05-13T22:29:32.156Z,54.90
2019-05-13T22:32:02.115Z,55.00
2019-05-13T22:34:32.054Z,54.90
2019-05-13T22:37:02.359Z,54.80
2019-05-13T22:39:34.606Z,54.90
2019-05-13T22:42:02.514Z,54.90
2019-05-13T22:44:32.492Z,54.90
2019-05-13T22:47:02.628Z,54.90
2019-05-13T22:49:31.857Z,54.80
2019-05-13T22:52:00.746Z,54.90
2019-05-13T22:54:31.742Z,54.90
2019-05-13T22:57:00.534Z,54.90
2019-05-13T22:59:29.483Z,54.80
2019-05-13T23:01:58.652Z,54.80
2019-05-13T23:04:27.690Z,54.80
2019-05-13T23:06:56.840Z,54.90
2019-05-13T23:09:25.877Z,54.70
2019-05-13T23:11:55.002Z,54.80
2019-05-13T23:14:24.060Z,54.70
2019-05-13T23:16:53.016Z,54.90
2019-05-13T23:19:22.238Z,54.80
2019-05-13T23:21:51.201Z,54.60
2019-05-13T23:24:21.823Z,54.70
2019-05-13T23:26:51.583Z,54.80
2019-05-13T23:29:21.522Z,54.80
2019-05-13T23:31:52.030Z,54.90
2019-05-13T23:34:22.302Z,54.80
2019-05-13T23:36:51.714Z,54.70
2019-05-13T23:39:21.656Z,54.80
2019-05-13T23:41:52.216Z,54.80
2019-05-13T23:44:27.694Z,54.80
2019-05-13T23:46:52.522Z,54.80
2019-05-13T23:49:21.618Z,54.80
2019-05-13T23:51:52.041Z,54.90
2019-05-13T23:54:21.463Z,54.80
2019-05-13T23:56:50.951Z,54.90
2019-05-13T23:59:21.904Z,54.80
